Airfield :
LOGIN :

Register | Disclaimer

   EN    FR    IT 

 










Legend :    VFR   Marginal VFR   IFR   Intensive IFR   Very Intensive IFR
Visi :
Ceiling :
>= 8 km
>= 3000ft
5 to 8 km
1000 to 3000 ft
1500m to 5 km
500 to 1000 ft
800 to 1500m
200 to 500 ft
< 800m
< 200 ft
Symbols :   Thunderstorms  Fog  Heavy snow  Heavy precipitations  Wind > 20 kt
SIGMETs :     Misc.  Thunderstorms  Icing  Turbulence  Mountain Waves  Volcanic Ashes







- Airport Elevation : 272 ft


EGWC - DCAE Cosford

CURRENT METAR :
  • 150950Z 32005KT 9999 FEW050 04/02 Q1000 BLU

EXPIRED METARs :
  • 150850Z 32007KT 9999 FEW030 02/00 Q0999 BLACKBLU
  • 150750Z 32011KT 9999 FEW025 02/00 Q0997 BLU

TAF TAF EGWC
Valid from the 15 at 09:00 until the 15 at 18:00 UTC


150756Z 1509/1518 33010KT 9999 FEW020
PROB30
TEMPO 1510/1515 33015G25KT SCT018 BKN025
No reported NOTAMs for that airfield.



MET'MAP, your aeronautical weather chart ! - Copyright ORBIFLY December 2007 - Disclaimer

ORBIFLY MET'MAP TEAM :

Programming & Development : Alexandra Zaïnal
Concept & Development : Baudouin d'Aumeries
Co-Development & Prog : Marc-Olivier Méhu
Technical & hardware support : Manuel Goepfert

Contact : metmap@orbifly.com




SOURCES & CREDITS :

   NOAA